Nome, AK (99762)

8:19 PM AKST on December 04, 2016 (GMT -0900)
Banner Creek | | Change Station

Elev 75 ft 64.64 °N, 165.28 °W | Updated 4 minutes ago

Mostly Cloudy
Mostly Cloudy
5.0 °F
Feels Like -7 °F
N
7.0
Wind Variable Wind from NE
Gusts 7.0 mph

Today
High -- | Low -- °F
--% Chance of Precip.
Yesterday
High -- | Low -- °F
Precip. -- in
Pressure 30.59 in
Visibility 10.0 miles
Clouds Few 15000 ft
Mostly Cloudy 22000 ft
Windchill -7 °F
Dew Point -4 °F
Humidity 64%
Rainfall 0.00 in
Snow Depth Not available.
11:35 AM 4:08 PM
Waxing Crescent, 28% visible
METAR PAOM 050453Z 07013KT 10SM FEW150 BKN220 M17/M23 A3058 RMK SLP357 T11671228 $ VIA AUTODIAL
Pressure 30.59 in
Visibility 10.0 miles
Clouds Few 15000 ft
Mostly Cloudy 22000 ft
Windchill -7 °F
Dew Point -4 °F
Humidity 64%
Rainfall 0.00 in
Snow Depth Not available.
11:35 AM 4:08 PM
Waxing Crescent, 28% visible
METAR PAOM 050453Z 07013KT 10SM FEW150 BKN220 M17/M23 A3058 RMK SLP357 T11671228 $ VIA AUTODIAL

10-Day Weather Forecast

Almanac

Astronomy

Dec. 04, 2016 Rise Set
Actual Time
Civil Twilight
Nautical Twilight
Astronomical Twilight
Moon
Length of Visible Light
Length of Day
Tomorrow will be .
, % of the Moon is Illuminated

Today's Extremes

State Highs State Lows

Community

WunderPhotos

Upload Photos

1,955,765 photos uploaded!

WunderBlog® & News

Nearby

Air Quality

  Air Quality AQ Index Pollutant
Not available.

Snow Depth

Station Depth Elevation

Earthquake Activity

City Distance Mag. Time & Date
Minimum magnitude displayed is 2.5.

Coastal Water Temperatures

Place Temperature

Stations

Nearby Weather Stations

Station Location Temp. Windchill Dew Point Humidity Wind Precip. Elev Updated Type
                   

Watches & Warnings

There are currently no watches in effect.